Time;durP1;ratioP1;P1;durP2;ratioP2;P2;SDS_P1;SDS_P2;PMS_P1;PMS_P2;Temp;Humidity;BMP_temperature;BMP_pressure;BME280_temperature;BME280_humidity;BME280_pressure;Samples;Min_cycle;Max_cycle;Signal;HPM_P1;HPM_P2
2022/05/23 00:02:08;;;;;;;6.93;3.17;;;7.40;99.90;;;;;;5005116;28;20392;-87
2022/05/23 00:04:36;;;;;;;5.63;2.75;;;7.40;99.90;;;;;;5014225;28;20413;-88
2022/05/23 00:07:13;;;;;;;5.55;2.97;;;7.30;99.90;;;;;;5016656;28;20426;-87
2022/05/23 00:09:42;;;;;;;6.80;2.78;;;7.20;99.90;;;;;;5004523;28;20412;-88
2022/05/23 00:12:10;;;;;;;5.30;2.80;;;7.00;99.90;;;;;;5014262;28;20450;-87
2022/05/23 00:14:41;;;;;;;5.25;2.60;;;7.00;99.90;;;;;;5013669;28;20755;-88
2022/05/23 00:17:11;;;;;;;5.90;3.20;;;7.00;99.90;;;;;;5017392;28;20427;-89
2022/05/23 00:19:41;;;;;;;6.30;2.80;;;7.00;99.90;;;;;;5011846;28;20395;-88
2022/05/23 00:22:12;;;;;;;6.03;3.38;;;7.00;99.90;;;;;;5009982;28;20401;-87
2022/05/23 00:24:41;;;;;;;6.25;2.90;;;7.10;99.90;;;;;;5018940;28;20415;-87
2022/05/23 00:27:12;;;;;;;9.32;3.17;;;7.00;99.90;;;;;;5014775;28;20401;-88
2022/05/23 00:29:40;;;;;;;6.97;3.20;;;7.00;99.90;;;;;;5010543;28;20411;-89
2022/05/23 00:37:53;;;;;;;6.13;3.03;;;7.00;99.90;;;;;;5046134;28;20399;-87
2022/05/23 00:40:39;;;;;;;6.37;2.83;;;6.90;99.90;;;;;;5012704;28;20401;-89
2022/05/23 00:43:16;;;;;;;4.97;3.08;;;6.90;99.90;;;;;;5015387;28;20399;-88
2022/05/23 00:45:46;;;;;;;5.28;3.00;;;6.80;99.90;;;;;;5017935;28;20879;-88
2022/05/23 00:48:16;;;;;;;6.85;3.42;;;6.80;99.90;;;;;;5046708;28;20809;-88
2022/05/23 00:50:50;;;;;;;5.63;2.90;;;6.70;99.90;;;;;;5304660;23;21348;-85
2022/05/23 00:53:28;;;;;;;7.03;2.90;;;6.80;99.90;;;;;;4946187;28;20420;-84
2022/05/23 00:55:57;;;;;;;5.28;2.60;;;6.70;99.90;;;;;;4952273;28;20406;-84
2022/05/23 00:58:30;;;;;;;6.60;3.00;;;6.70;99.90;;;;;;4955191;28;20491;-85
2022/05/23 01:01:04;;;;;;;5.30;3.03;;;6.70;99.90;;;;;;4967273;28;20419;-84
2022/05/23 01:03:31;;;;;;;6.25;3.22;;;6.70;99.90;;;;;;4962577;28;20403;-84
2022/05/23 01:05:59;;;;;;;6.63;3.05;;;6.70;99.90;;;;;;4952497;29;20400;-85
2022/05/23 01:08:28;;;;;;;6.10;3.10;;;6.70;99.90;;;;;;4964570;28;20410;-85
2022/05/23 01:10:56;;;;;;;5.82;2.90;;;6.70;99.90;;;;;;4959669;28;20904;-84
2022/05/23 01:13:23;;;;;;;5.47;3.03;;;6.70;99.90;;;;;;4963596;28;20490;-84
2022/05/23 01:15:51;;;;;;;6.88;2.97;;;6.60;99.90;;;;;;4953918;28;20407;-85
2022/05/23 01:18:21;;;;;;;6.30;3.00;;;6.50;99.90;;;;;;4947000;28;20412;-85
2022/05/23 01:20:56;;;;;;;5.40;2.90;;;6.50;99.90;;;;;;4942232;29;20474;-85
2022/05/23 01:23:50;;;;;;;6.63;3.20;;;6.50;99.90;;;;;;4957331;28;20454;-83
2022/05/23 01:26:25;;;;;;;6.43;3.10;;;6.40;99.90;;;;;;4944455;28;20910;-84
2022/05/23 01:28:55;;;;;;;4.97;3.25;;;6.30;99.90;;;;;;4942068;28;20765;-85
2022/05/23 01:31:46;;;;;;;8.57;3.22;;;6.40;99.90;;;;;;4959383;28;20485;-83
2022/05/23 01:34:23;;;;;;;7.07;3.50;;;6.40;99.90;;;;;;4946197;28;20946;-85
2022/05/23 01:37:02;;;;;;;5.85;3.60;;;6.30;99.90;;;;;;4936274;29;20479;-85
2022/05/23 01:39:35;;;;;;;5.97;2.97;;;6.30;99.90;;;;;;4957855;28;20415;-85
2022/05/23 01:42:04;;;;;;;6.47;2.95;;;6.20;99.90;;;;;;4956694;28;20477;-85
2022/05/23 01:44:33;;;;;;;5.88;2.97;;;6.20;99.90;;;;;;4925626;29;20419;-85
2022/05/23 01:47:13;;;;;;;6.53;2.80;;;6.20;99.90;;;;;;4961266;28;20420;-84
2022/05/23 01:49:56;;;;;;;7.75;3.47;;;6.10;99.90;;;;;;4940508;29;20412;-85
2022/05/23 01:52:55;;;;;;;7.18;3.25;;;6.10;99.90;;;;;;4955166;28;20545;-84
2022/05/23 01:55:31;;;;;;;5.53;3.00;;;6.10;99.90;;;;;;4950646;28;20384;-85
2022/05/23 01:58:10;;;;;;;5.72;3.13;;;6.10;99.90;;;;;;4954784;28;20399;-84
2022/05/23 02:03:33;;;;;;;5.57;3.30;;;6.00;99.90;;;;;;4946526;28;20419;-86
2022/05/23 02:06:01;;;;;;;5.90;3.42;;;6.00;99.90;;;;;;4952946;28;20472;-85
2022/05/23 02:08:29;;;;;;;6.38;3.25;;;5.90;99.90;;;;;;4966126;28;20398;-86
2022/05/23 02:10:57;;;;;;;4.50;2.83;;;5.90;99.90;;;;;;4942471;28;20451;-86
2022/05/23 02:13:35;;;;;;;6.03;3.53;;;5.90;99.90;;;;;;4953720;28;20447;-85
2022/05/23 02:16:04;;;;;;;7.05;3.30;;;5.80;99.90;;;;;;4953981;28;20909;-86
2022/05/23 02:18:39;;;;;;;7.03;3.15;;;5.80;99.90;;;;;;4940327;29;20412;-84
2022/05/23 02:21:07;;;;;;;6.43;3.22;;;5.70;99.90;;;;;;4960667;28;20423;-85
2022/05/23 02:23:36;;;;;;;7.27;3.40;;;5.70;99.90;;;;;;4956798;28;20418;-84
2022/05/23 02:26:04;;;;;;;5.47;3.25;;;5.70;99.90;;;;;;4943095;28;20985;-85
2022/05/23 02:28:50;;;;;;;7.57;2.85;;;5.60;99.90;;;;;;4951365;29;20974;-84
2022/05/23 02:31:25;;;;;;;6.03;3.57;;;5.60;99.90;;;;;;4944073;28;20403;-86
2022/05/23 02:34:03;;;;;;;6.07;3.45;;;5.60;99.90;;;;;;4930763;28;20475;-86
2022/05/23 02:36:37;;;;;;;5.50;3.13;;;5.60;99.90;;;;;;4940090;28;20840;-84
2022/05/23 02:39:06;;;;;;;5.97;3.50;;;5.60;99.90;;;;;;4947622;28;20410;-85
2022/05/23 02:41:34;;;;;;;7.82;3.50;;;5.60;99.90;;;;;;4947852;28;20407;-84
2022/05/23 02:44:05;;;;;;;7.18;3.70;;;5.60;99.90;;;;;;4939106;29;20420;-84
2022/05/23 02:46:34;;;;;;;6.45;3.30;;;5.60;99.90;;;;;;4961309;28;20408;-86
2022/05/23 02:49:10;;;;;;;7.13;3.88;;;5.60;99.90;;;;;;4942005;28;20415;-85
2022/05/23 02:51:42;;;;;;;6.70;3.60;;;5.60;99.90;;;;;;4944782;28;20414;-84
2022/05/23 02:54:12;;;;;;;6.68;3.58;;;5.60;99.90;;;;;;4946842;28;20410;-85
2022/05/23 02:56:42;;;;;;;5.97;3.42;;;5.60;99.90;;;;;;4945470;29;20408;-84
2022/05/23 02:59:11;;;;;;;7.72;3.60;;;5.50;99.90;;;;;;4940884;28;20420;-85
2022/05/23 03:04:36;;;;;;;6.68;3.33;;;5.60;99.90;;;;;;4948810;28;20418;-85
2022/05/23 03:07:05;;;;;;;7.97;3.30;;;5.50;99.90;;;;;;4948566;28;20909;-84
2022/05/23 03:09:32;;;;;;;6.10;3.53;;;5.40;99.90;;;;;;4937345;28;20451;-83
2022/05/23 03:12:01;;;;;;;6.90;3.47;;;5.50;99.90;;;;;;4950894;28;20450;-85
2022/05/23 03:14:29;;;;;;;6.85;3.58;;;5.50;99.90;;;;;;4945380;28;20926;-85
2022/05/23 03:17:04;;;;;;;6.28;3.47;;;5.50;99.90;;;;;;4934186;29;20421;-84
2022/05/23 03:19:37;;;;;;;5.75;3.25;;;5.50;99.90;;;;;;4946924;28;20418;-84
2022/05/23 03:27:43;;;;;;;7.88;3.55;;;5.40;99.90;;;;;;4937377;29;20425;-85
2022/05/23 03:30:16;;;;;;;5.95;3.30;;;5.50;99.90;;;;;;4939737;29;20466;-85
2022/05/23 03:32:53;;;;;;;7.45;3.85;;;5.40;99.90;;;;;;4946689;28;20474;-86
2022/05/23 03:35:22;;;;;;;7.13;3.40;;;5.40;99.90;;;;;;4935796;29;20407;-83
2022/05/23 03:37:50;;;;;;;6.82;3.47;;;5.50;99.90;;;;;;4941167;28;20418;-85
2022/05/23 03:40:18;;;;;;;9.25;3.67;;;5.50;99.90;;;;;;4950509;28;20816;-85
2022/05/23 03:42:49;;;;;;;7.53;3.37;;;5.40;99.90;;;;;;4957912;28;20426;-86
2022/05/23 03:45:18;;;;;;;6.40;3.10;;;5.50;99.90;;;;;;4936078;29;20483;-85
2022/05/23 03:47:50;;;;;;;7.07;3.45;;;5.60;99.90;;;;;;4945515;29;20409;-85
2022/05/23 03:50:19;;;;;;;7.70;3.72;;;5.60;99.90;;;;;;4942950;29;20400;-84
2022/05/23 03:52:47;;;;;;;6.15;3.45;;;5.60;99.90;;;;;;5022506;28;20414;-85
2022/05/23 03:55:24;;;;;;;6.85;3.53;;;5.70;99.90;;;;;;5037490;28;20408;-85
2022/05/23 03:58:14;;;;;;;6.18;3.50;;;5.60;99.90;;;;;;5023319;28;20408;-85
2022/05/23 04:00:44;;;;;;;6.72;3.40;;;5.60;99.90;;;;;;5012121;28;20440;-84
2022/05/23 04:03:12;;;;;;;5.88;3.38;;;5.60;99.90;;;;;;5025573;28;20905;-85
2022/05/23 04:05:41;;;;;;;6.82;3.47;;;5.70;99.90;;;;;;5039100;28;20903;-83
2022/05/23 04:08:15;;;;;;;6.97;2.88;;;5.70;99.90;;;;;;5030114;28;20507;-85
2022/05/23 04:10:48;;;;;;;6.35;2.88;;;5.70;99.90;;;;;;5016188;28;20418;-86
2022/05/23 04:13:17;;;;;;;5.67;3.10;;;5.70;99.90;;;;;;5013623;28;20405;-81
2022/05/23 04:15:45;;;;;;;7.18;3.83;;;5.70;99.90;;;;;;5012880;28;20501;-83
2022/05/23 04:18:13;;;;;;;6.93;3.88;;;5.70;99.90;;;;;;5009913;28;20419;-83
2022/05/23 04:20:41;;;;;;;7.85;3.10;;;5.80;99.90;;;;;;5021621;28;20403;-84
2022/05/23 04:23:15;;;;;;;9.90;3.63;;;5.80;99.90;;;;;;5006506;28;20454;-84
2022/05/23 04:25:47;;;;;;;9.95;3.33;;;5.80;99.90;;;;;;5017851;28;20407;-83
2022/05/23 04:28:18;;;;;;;4.30;2.55;;;5.90;99.90;;;;;;5037765;28;20921;-83
2022/05/23 04:30:48;;;;;;;7.95;4.13;;;6.00;99.90;;;;;;5004851;28;20470;-84
2022/05/23 04:36:07;;;;;;;5.00;2.63;;;6.10;99.90;;;;;;5013084;28;20421;-82
2022/05/23 04:38:42;;;;;;;9.50;4.13;;;6.10;99.90;;;;;;5017086;28;20896;-84
2022/05/23 04:41:10;;;;;;;8.13;4.15;;;6.10;99.90;;;;;;5020451;28;20424;-83
2022/05/23 04:43:56;;;;;;;6.57;3.70;;;6.20;99.90;;;;;;5023639;28;20428;-84
2022/05/23 04:46:26;;;;;;;6.05;3.05;;;6.20;99.90;;;;;;5012147;28;20461;-84
2022/05/23 04:52:02;;;;;;;10.75;3.38;;;6.30;99.90;;;;;;4972706;28;20436;-86
2022/05/23 04:54:39;;;;;;;7.45;3.00;;;6.40;99.90;;;;;;4959622;28;20421;-84
2022/05/23 04:57:09;;;;;;;6.30;2.85;;;6.40;99.90;;;;;;4945630;28;20398;-84
2022/05/23 04:59:37;;;;;;;9.27;2.95;;;6.40;99.90;;;;;;4934753;29;20752;-83
2022/05/23 05:02:11;;;;;;;5.97;2.83;;;6.50;99.90;;;;;;4922447;29;20412;-84
2022/05/23 05:04:39;;;;;;;7.82;3.22;;;6.60;99.90;;;;;;4940117;28;20501;-83
2022/05/23 05:07:08;;;;;;;6.57;3.20;;;6.70;99.90;;;;;;4945753;29;20455;-83
2022/05/23 05:09:36;;;;;;;7.00;2.97;;;6.70;99.90;;;;;;4953904;28;20450;-83
2022/05/23 05:12:11;;;;;;;6.47;3.33;;;6.80;99.90;;;;;;4948686;28;20417;-84
2022/05/23 05:14:41;;;;;;;6.13;3.35;;;6.80;99.90;;;;;;4931977;29;20414;-84
2022/05/23 05:17:10;;;;;;;6.77;2.93;;;6.90;99.90;;;;;;4948840;28;20413;-84
2022/05/23 05:19:39;;;;;;;6.07;2.70;;;7.00;99.90;;;;;;4956349;28;20772;-84
2022/05/23 05:22:25;;;;;;;6.38;2.88;;;7.00;99.90;;;;;;4937139;29;20412;-84
2022/05/23 05:25:10;;;;;;;6.32;3.20;;;7.00;99.90;;;;;;4949364;29;20410;-84
2022/05/23 05:27:47;;;;;;;5.93;2.92;;;7.00;99.90;;;;;;4964947;28;20428;-85
2022/05/23 05:30:19;;;;;;;6.63;2.80;;;7.10;99.90;;;;;;4938315;29;20412;-85
2022/05/23 05:33:09;;;;;;;5.65;2.72;;;7.10;99.90;;;;;;4956136;28;20410;-84
2022/05/23 05:35:42;;;;;;;5.05;2.30;;;7.20;99.90;;;;;;4949708;29;20425;-84
2022/05/23 05:38:15;;;;;;;5.38;2.47;;;7.30;99.90;;;;;;4940493;29;20509;-84
2022/05/23 05:40:46;;;;;;;5.20;2.20;;;7.30;99.90;;;;;;4945911;28;20441;-84
2022/05/23 05:43:22;;;;;;;5.53;2.40;;;7.40;99.90;;;;;;4954858;28;20401;-83
2022/05/23 05:45:56;;;;;;;5.38;2.70;;;7.50;99.90;;;;;;4948657;28;20408;-81
2022/05/23 05:48:42;;;;;;;5.57;2.60;;;7.50;99.90;;;;;;4923824;29;20466;-84
2022/05/23 05:51:14;;;;;;;4.67;2.33;;;7.60;99.90;;;;;;4946956;28;20407;-85
2022/05/23 05:54:05;;;;;;;6.18;2.22;;;7.60;99.90;;;;;;4938229;29;20418;-85
2022/05/23 05:56:39;;;;;;;5.72;2.60;;;7.70;99.90;;;;;;4953202;28;20485;-84
2022/05/23 05:59:09;;;;;;;4.43;2.40;;;7.70;99.90;;;;;;4927647;29;20437;-84
2022/05/23 06:01:42;;;;;;;6.03;2.22;;;7.70;99.90;;;;;;4942189;29;20501;-85
2022/05/23 06:04:11;;;;;;;4.32;2.10;;;7.80;99.90;;;;;;4920574;29;20483;-84
2022/05/23 06:12:30;;;;;;;4.05;2.00;;;8.10;99.90;;;;;;4949188;28;20452;-85
2022/05/23 06:15:27;;;;;;;4.83;2.50;;;8.10;99.90;;;;;;5002890;28;20411;-85
2022/05/23 06:17:55;;;;;;;3.08;1.92;;;8.10;99.90;;;;;;4939464;29;20426;-84
2022/05/23 06:20:23;;;;;;;3.17;2.05;;;8.20;99.90;;;;;;4931202;29;20414;-85
2022/05/23 06:22:51;;;;;;;3.13;1.80;;;8.30;99.90;;;;;;4946157;28;20422;-85
2022/05/23 06:25:20;;;;;;;3.70;1.85;;;8.40;99.90;;;;;;4961346;28;20416;-84
2022/05/23 06:27:51;;;;;;;6.93;1.98;;;8.50;99.90;;;;;;4941348;28;20410;-85
2022/05/23 06:30:22;;;;;;;5.28;1.95;;;8.60;99.90;;;;;;4952125;28;20428;-85
2022/05/23 06:33:07;;;;;;;4.03;2.00;;;8.60;99.90;;;;;;4950456;28;20431;-85
2022/05/23 06:35:43;;;;;;;5.30;2.15;;;8.60;99.90;;;;;;4933566;29;20552;-85
2022/05/23 06:38:11;;;;;;;4.45;1.75;;;8.60;99.90;;;;;;4931649;29;20474;-85
2022/05/23 06:40:50;;;;;;;3.10;1.70;;;8.70;99.90;;;;;;4950424;29;20875;-84
2022/05/23 06:43:38;;;;;;;5.20;1.92;;;8.70;99.90;;;;;;4951893;28;20540;-85
2022/05/23 06:46:29;;;;;;;4.45;1.90;;;8.80;99.90;;;;;;4945598;29;20909;-86
2022/05/23 06:49:15;;;;;;;3.28;1.80;;;8.80;99.90;;;;;;4948302;28;20417;-86
2022/05/23 06:52:06;;;;;;;3.83;1.77;;;8.80;99.90;;;;;;4984433;28;20408;-83
2022/05/23 06:54:55;;;;;;;3.20;1.80;;;9.10;99.90;;;;;;4997423;28;20466;-85
2022/05/23 06:57:39;;;;;;;3.53;1.70;;;9.00;99.90;;;;;;4925558;29;20411;-85
2022/05/23 07:00:11;;;;;;;3.58;1.50;;;9.20;99.90;;;;;;4937792;29;20413;-85
2022/05/23 07:02:40;;;;;;;5.35;1.70;;;9.30;99.90;;;;;;4948880;28;20421;-85
2022/05/23 07:13:42;;;;;;;4.10;1.60;;;9.40;99.90;;;;;;4941211;29;20419;-85
2022/05/23 07:16:11;;;;;;;4.03;1.80;;;9.40;99.90;;;;;;4958502;28;20444;-85
2022/05/23 07:18:42;;;;;;;4.78;1.90;;;9.60;99.90;;;;;;4947169;29;20892;-85
2022/05/23 07:21:19;;;;;;;2.83;1.70;;;9.70;99.90;;;;;;4941295;29;20408;-86
2022/05/23 07:24:13;;;;;;;3.10;1.55;;;9.70;99.90;;;;;;4943669;28;20415;-85
2022/05/23 07:27:00;;;;;;;4.15;1.98;;;9.70;99.90;;;;;;4947770;28;20447;-86
2022/05/23 07:29:28;;;;;;;3.25;1.77;;;9.90;99.90;;;;;;4961800;28;20416;-86
2022/05/23 07:32:00;;;;;;;3.60;1.50;;;9.90;99.90;;;;;;4957538;28;20416;-85
2022/05/23 07:34:29;;;;;;;4.57;2.03;;;9.90;99.90;;;;;;4936425;29;20418;-85
2022/05/23 07:36:59;;;;;;;4.70;2.17;;;10.00;99.90;;;;;;4933669;29;20429;-85
2022/05/23 07:39:27;;;;;;;5.07;2.22;;;10.10;99.90;;;;;;4957402;28;20424;-85
2022/05/23 07:42:21;;;;;;;4.07;1.98;;;10.20;99.90;;;;;;4945456;28;20385;-85
2022/05/23 07:44:49;;;;;;;4.93;1.70;;;10.40;99.90;;;;;;4959937;28;20461;-85
2022/05/23 07:47:18;;;;;;;4.07;1.75;;;10.40;99.90;;;;;;4948348;28;20422;-85
2022/05/23 07:50:08;;;;;;;4.88;1.88;;;10.50;99.90;;;;;;4925912;29;20865;-85
2022/05/23 07:52:37;;;;;;;3.70;2.00;;;10.40;99.90;;;;;;4948131;28;20510;-85
2022/05/23 08:00:44;;;;;;;4.33;1.93;;;10.70;99.90;;;;;;4958296;28;20438;-86
2022/05/23 08:03:20;;;;;;;3.25;1.80;;;10.70;99.90;;;;;;4942036;28;20412;-85
2022/05/23 08:06:11;;;;;;;4.47;2.00;;;10.70;99.90;;;;;;4926986;29;20403;-86
2022/05/23 08:08:40;;;;;;;4.22;1.80;;;10.70;99.90;;;;;;4949274;28;20418;-86
2022/05/23 08:11:09;;;;;;;3.47;1.90;;;10.80;99.90;;;;;;4948932;28;20499;-86
2022/05/23 08:13:54;;;;;;;3.33;1.80;;;11.00;99.90;;;;;;4938446;29;20496;-87
2022/05/23 08:16:23;;;;;;;4.28;2.00;;;11.00;99.90;;;;;;4934495;29;20418;-86
2022/05/23 08:18:51;;;;;;;5.53;1.90;;;11.00;99.90;;;;;;4945249;28;20422;-85
2022/05/23 08:21:19;;;;;;;3.05;1.75;;;11.10;99.90;;;;;;4925920;28;20904;-85
2022/05/23 08:23:48;;;;;;;3.92;1.75;;;11.30;99.90;;;;;;4919781;29;20449;-86
2022/05/23 08:26:23;;;;;;;5.05;2.60;;;11.30;99.90;;;;;;4942131;29;20987;-89
2022/05/23 08:28:51;;;;;;;5.80;2.13;;;11.30;99.90;;;;;;4936535;29;20489;-87
2022/05/23 08:31:22;;;;;;;5.50;1.90;;;11.40;99.90;;;;;;4957456;28;20774;-88
2022/05/23 08:34:11;;;;;;;5.57;1.90;;;11.60;99.90;;;;;;4942435;28;20424;-89
2022/05/23 08:36:39;;;;;;;4.85;2.05;;;11.60;99.90;;;;;;4947707;29;20416;-88
2022/05/23 08:39:07;;;;;;;3.28;1.70;;;11.70;99.90;;;;;;4949030;29;20408;-87
2022/05/23 08:41:56;;;;;;;2.80;1.67;;;11.80;99.90;;;;;;4938100;29;20413;-86
2022/05/23 08:44:55;;;;;;;5.00;2.00;;;11.70;99.90;;;;;;4951954;28;20416;-88
2022/05/23 08:47:41;;;;;;;3.53;1.80;;;12.00;99.90;;;;;;4950872;29;20515;-87
2022/05/23 08:50:43;;;;;;;4.20;2.30;;;12.10;99.90;;;;;;4949804;28;20497;-88
2022/05/23 08:53:24;;;;;;;4.70;2.00;;;12.20;99.90;;;;;;4950021;28;20414;-88
2022/05/23 08:56:39;;;;;;;4.33;1.90;;;12.20;99.90;;;;;;4947160;28;20404;-87
2022/05/23 08:59:31;;;;;;;3.13;1.77;;;12.40;99.90;;;;;;4943896;28;20412;-87
2022/05/23 09:02:09;;;;;;;4.35;1.90;;;12.30;99.90;;;;;;4962012;28;20462;-88
2022/05/23 09:04:44;;;;;;;3.13;1.90;;;12.30;99.90;;;;;;4941601;28;20416;-88
2022/05/23 09:07:23;;;;;;;4.03;1.85;;;12.40;99.90;;;;;;4939528;28;20414;-88
2022/05/23 09:09:52;;;;;;;4.32;2.00;;;12.40;99.90;;;;;;4958052;28;20466;-89
2022/05/23 09:12:20;;;;;;;4.10;1.70;;;12.40;99.90;;;;;;4962375;28;20416;-87
2022/05/23 09:14:48;;;;;;;4.40;1.80;;;12.50;99.90;;;;;;4963366;28;20508;-88
2022/05/23 09:17:26;;;;;;;3.10;1.70;;;12.60;99.90;;;;;;4941741;28;20442;-88
2022/05/23 09:20:15;;;;;;;3.63;2.03;;;12.50;99.90;;;;;;4944805;28;20422;-89
2022/05/23 09:22:55;;;;;;;3.88;1.73;;;12.60;99.90;;;;;;4939358;28;20447;-89
2022/05/23 09:25:25;;;;;;;3.47;2.03;;;12.80;99.90;;;;;;4953647;28;20774;-88
2022/05/23 09:28:18;;;;;;;6.03;1.80;;;12.80;99.90;;;;;;4960025;28;20454;-88
2022/05/23 09:30:56;;;;;;;3.63;1.80;;;13.00;99.90;;;;;;4959541;28;20890;-90
2022/05/23 09:33:26;;;;;;;4.50;2.10;;;12.90;99.90;;;;;;4951959;28;20416;-89
2022/05/23 09:36:16;;;;;;;2.38;1.67;;;13.00;99.90;;;;;;4957325;28;20420;-90
2022/05/23 09:39:03;;;;;;;5.32;2.03;;;13.20;99.90;;;;;;4948217;28;20414;-89
2022/05/23 09:47:44;;;;;;;3.53;1.92;;;13.30;99.90;;;;;;4947059;28;20475;-88
2022/05/23 09:50:34;;;;;;;6.00;2.15;;;13.40;99.90;;;;;;4966728;28;20493;-89
2022/05/23 09:53:35;;;;;;;4.05;1.70;;;13.40;99.90;;;;;;4952009;28;20454;-89
2022/05/23 09:56:31;;;;;;;3.45;1.63;;;13.40;99.90;;;;;;4929210;28;20416;-90
2022/05/23 09:59:02;;;;;;;3.92;1.80;;;13.30;99.90;;;;;;4927306;29;20449;-89
2022/05/23 10:01:40;;;;;;;3.70;1.45;;;13.30;99.90;;;;;;4947735;28;20416;-89
2022/05/23 10:04:26;;;;;;;3.20;1.50;;;13.50;99.90;;;;;;4973288;28;20872;-88
2022/05/23 10:06:54;;;;;;;3.28;1.77;;;13.70;99.90;;;;;;4959820;28;20412;-88
2022/05/23 10:09:29;;;;;;;2.58;1.65;;;13.80;99.90;;;;;;4941250;28;20406;-87
2022/05/23 10:12:32;;;;;;;2.90;1.80;;;13.70;99.90;;;;;;4979729;28;20786;-89
2022/05/23 10:15:10;;;;;;;2.77;1.70;;;13.90;99.90;;;;;;4939647;29;20416;-88
2022/05/23 10:17:39;;;;;;;3.10;1.80;;;13.90;99.90;;;;;;4961429;28;20772;-87
2022/05/23 10:20:28;;;;;;;3.00;1.67;;;14.00;99.90;;;;;;4948862;28;20416;-89
2022/05/23 10:23:02;;;;;;;3.38;1.83;;;14.20;99.90;;;;;;4933939;29;20999;-88
2022/05/23 10:26:06;;;;;;;2.95;1.75;;;14.30;99.90;;;;;;4956753;28;20425;-89
2022/05/23 10:29:08;;;;;;;3.08;1.92;;;14.30;99.90;;;;;;4938937;29;20419;-88
2022/05/23 10:31:48;;;;;;;2.90;1.73;;;14.40;99.90;;;;;;4962789;28;20425;-89
2022/05/23 10:34:37;;;;;;;3.00;1.60;;;14.40;99.90;;;;;;4951473;28;20409;-88
2022/05/23 10:37:12;;;;;;;3.53;1.70;;;14.50;99.90;;;;;;4962617;28;20413;-89
2022/05/23 10:42:35;;;;;;;3.63;1.60;;;14.60;99.90;;;;;;4943405;28;20401;-88
2022/05/23 10:45:28;;;;;;;3.03;1.70;;;14.60;99.90;;;;;;4946035;28;20401;-89
2022/05/23 10:48:10;;;;;;;4.45;1.73;;;14.70;99.90;;;;;;4950493;28;20499;-89
2022/05/23 10:50:54;;;;;;;2.40;1.40;;;14.80;99.90;;;;;;4944151;28;20436;-90
2022/05/23 10:53:37;;;;;;;2.28;1.30;;;14.90;99.90;;;;;;4943912;28;20407;-90
2022/05/23 10:56:35;;;;;;;5.03;1.67;;;14.90;99.90;;;;;;4926228;28;20408;-92
2022/05/23 10:59:31;;;;;;;3.13;1.77;;;15.00;99.90;;;;;;4965658;28;20764;-90
2022/05/23 11:02:20;;;;;;;3.25;1.30;;;15.00;99.90;;;;;;4958169;28;20406;-90
2022/05/23 11:05:07;;;;;;;3.63;1.30;;;15.20;99.90;;;;;;4959907;28;20463;-90
2022/05/23 11:07:43;;;;;;;3.38;1.50;;;15.30;99.90;;;;;;4937736;28;20396;-90
2022/05/23 11:10:38;;;;;;;3.33;1.50;;;15.30;99.90;;;;;;4942923;28;20443;-89
2022/05/23 11:13:21;;;;;;;3.13;1.67;;;15.40;99.90;;;;;;4949841;28;20399;-89
2022/05/23 11:16:03;;;;;;;4.85;1.80;;;15.50;99.90;;;;;;4935116;28;20498;-90
2022/05/23 11:18:37;;;;;;;5.13;1.60;;;15.60;99.90;;;;;;4946503;28;20479;-91
2022/05/23 11:21:12;;;;;;;3.95;1.70;;;15.50;99.90;;;;;;4959364;28;20412;-89
2022/05/23 11:24:03;;;;;;;2.97;1.60;;;15.50;99.90;;;;;;4948879;28;20951;-89
2022/05/23 11:26:37;;;;;;;2.87;1.60;;;15.70;99.90;;;;;;4940676;28;20408;-89
2022/05/23 11:35:01;;;;;;;3.28;1.67;;;15.70;99.90;;;;;;4967778;28;20421;-87
2022/05/23 11:37:45;;;;;;;2.33;1.60;;;15.80;99.90;;;;;;4963024;28;20777;-88
2022/05/23 11:40:26;;;;;;;3.88;1.65;;;15.90;99.90;;;;;;4961022;28;20403;-89
2022/05/23 11:43:05;;;;;;;6.03;2.30;;;16.00;99.90;;;;;;4961791;28;20463;-89
2022/05/23 11:48:34;;;;;;;3.03;1.90;;;16.00;99.90;;;;;;4967496;28;20395;-87
2022/05/23 11:51:15;;;;;;;3.20;1.83;;;16.10;99.90;;;;;;4941727;28;20418;-88
2022/05/23 11:53:55;;;;;;;3.63;1.80;;;16.20;99.90;;;;;;4957201;28;20433;-89
2022/05/23 11:56:45;;;;;;;4.93;2.10;;;16.30;99.90;;;;;;4944332;28;20907;-89
2022/05/23 11:59:33;;;;;;;4.20;1.88;;;16.20;99.90;;;;;;4954692;28;20404;-90
2022/05/23 12:02:10;;;;;;;3.60;1.70;;;16.40;99.90;;;;;;4954481;28;20418;-90
2022/05/23 12:04:44;;;;;;;4.65;1.90;;;16.40;99.90;;;;;;4940455;28;20540;-88
2022/05/23 12:07:31;;;;;;;3.35;1.65;;;16.50;99.90;;;;;;4954108;28;20412;-90
2022/05/23 12:10:22;;;;;;;4.80;1.92;;;16.60;99.90;;;;;;4954002;28;20413;-89
2022/05/23 12:12:58;;;;;;;3.20;1.90;;;16.70;99.90;;;;;;4954533;28;20417;-89
2022/05/23 12:15:44;;;;;;;4.07;1.77;;;16.80;99.90;;;;;;4945624;28;20429;-90
2022/05/23 12:18:20;;;;;;;2.60;1.67;;;17.00;99.90;;;;;;4954691;28;20407;-89
2022/05/23 12:20:58;;;;;;;3.45;1.77;;;17.10;99.90;;;;;;4936531;28;20468;-88
2022/05/23 12:23:39;;;;;;;3.25;1.60;;;17.00;99.90;;;;;;4959962;28;20408;-91
2022/05/23 12:26:32;;;;;;;4.50;1.88;;;16.90;99.90;;;;;;4948724;28;20435;-87
2022/05/23 12:29:19;;;;;;;5.25;2.00;;;17.10;99.90;;;;;;4936540;28;20907;-89
2022/05/23 12:32:17;;;;;;;3.50;1.88;;;17.20;99.90;;;;;;4942734;28;20420;-90
2022/05/23 12:34:48;;;;;;;2.28;1.70;;;17.30;99.90;;;;;;4945808;28;20452;-90
2022/05/23 12:37:38;;;;;;;4.32;1.70;;;17.40;99.90;;;;;;4934222;28;20500;-90
2022/05/23 12:40:29;;;;;;;3.00;1.67;;;17.60;99.90;;;;;;4935934;28;20408;-90
2022/05/23 12:43:27;;;;;;;3.17;1.60;;;17.60;99.90;;;;;;4962460;28;20440;-90
2022/05/23 12:46:33;;;;;;;4.07;1.50;;;17.80;99.90;;;;;;4952502;28;20779;-89
2022/05/23 12:49:26;;;;;;;3.70;1.70;;;17.50;99.90;;;;;;4947025;28;20431;-90
2022/05/23 12:52:21;;;;;;;2.35;1.60;;;17.30;99.90;;;;;;4942208;28;20425;-89
2022/05/23 12:55:14;;;;;;;2.80;1.83;;;17.20;99.90;;;;;;4947116;29;20409;-90
2022/05/23 12:57:47;;;;;;;3.03;1.88;;;17.10;99.90;;;;;;4957588;28;20861;-89
2022/05/23 13:00:19;;;;;;;6.93;1.80;;;16.90;99.90;;;;;;4936845;29;20794;-88
2022/05/23 13:03:01;;;;;;;5.72;1.95;;;16.80;99.90;;;;;;4947217;28;20469;-89
2022/05/23 13:05:48;;;;;;;3.42;1.80;;;16.70;99.90;;;;;;4939498;28;20400;-88
2022/05/23 13:08:26;;;;;;;2.97;1.95;;;16.70;99.90;;;;;;4937352;28;20435;-89
2022/05/23 13:11:26;;;;;;;2.72;1.77;;;17.00;99.90;;;;;;4929010;29;20410;-89
2022/05/23 13:13:58;;;;;;;3.58;1.83;;;17.30;99.90;;;;;;4927338;28;20459;-89
2022/05/23 13:16:30;;;;;;;3.78;1.90;;;17.50;99.90;;;;;;4933521;28;20410;-89
2022/05/23 13:22:10;;;;;;;3.20;1.90;;;17.80;99.90;;;;;;4955104;28;20509;-89
2022/05/23 13:24:52;;;;;;;5.13;1.92;;;17.80;99.90;;;;;;4936483;29;20398;-81
2022/05/23 13:27:29;;;;;;;5.80;3.10;;;17.60;99.70;;;;;;4943389;28;20413;-83
2022/05/23 13:30:03;;;;;;;7.57;2.70;;;17.60;99.90;;;;;;4943983;28;20406;-84
2022/05/23 13:32:30;;;;;;;4.07;1.70;;;17.50;99.90;;;;;;4942500;28;20406;-83
2022/05/23 13:34:59;;;;;;;2.40;1.50;;;17.60;97.90;;;;;;4936384;29;20431;-83
2022/05/23 13:37:36;;;;;;;3.40;1.60;;;17.70;96.30;;;;;;4961639;28;20511;-83
2022/05/23 13:40:26;;;;;;;2.75;1.67;;;17.70;97.00;;;;;;4961063;28;20421;-83
2022/05/23 13:43:15;;;;;;;10.45;2.28;;;17.80;96.20;;;;;;4939838;29;20414;-84
2022/05/23 13:45:44;;;;;;;4.45;1.92;;;17.90;97.70;;;;;;4943583;28;20916;-84
2022/05/23 13:48:37;;;;;;;11.43;3.00;;;17.90;97.40;;;;;;4939360;29;20425;-84
2022/05/23 13:51:11;;;;;;;4.38;1.90;;;18.00;99.90;;;;;;4947529;29;20493;-85
2022/05/23 13:53:45;;;;;;;7.20;2.20;;;18.00;98.80;;;;;;4947795;29;20462;-84
2022/05/23 13:56:14;;;;;;;3.85;1.98;;;18.00;99.90;;;;;;4940493;29;20442;-85
2022/05/23 13:58:50;;;;;;;5.20;2.00;;;18.00;99.30;;;;;;4959396;28;20407;-84
2022/05/23 14:01:30;;;;;;;5.05;2.10;;;18.00;99.90;;;;;;4942875;29;20405;-85
2022/05/23 14:04:06;;;;;;;3.95;1.80;;;18.20;96.90;;;;;;4938734;29;20441;-85
2022/05/23 14:06:58;;;;;;;6.38;2.42;;;18.10;96.80;;;;;;4938222;28;20408;-85
2022/05/23 14:09:27;;;;;;;3.75;1.75;;;18.30;99.90;;;;;;4941064;29;20409;-84
2022/05/23 14:12:04;;;;;;;3.33;1.80;;;18.50;96.70;;;;;;4939487;28;21277;-85
2022/05/23 14:14:39;;;;;;;3.70;1.97;;;18.80;99.70;;;;;;4948903;29;20398;-85
2022/05/23 14:17:18;;;;;;;6.75;2.17;;;18.80;99.90;;;;;;4934142;29;20412;-85
2022/05/23 14:19:49;;;;;;;5.37;2.17;;;19.00;99.90;;;;;;4941363;28;20398;-86
2022/05/23 14:22:31;;;;;;;4.10;1.80;;;18.90;99.00;;;;;;4918715;29;20742;-86
2022/05/23 14:25:23;;;;;;;4.10;1.90;;;19.10;99.40;;;;;;4934331;29;20489;-84
2022/05/23 14:27:53;;;;;;;4.07;1.77;;;19.10;98.20;;;;;;4941362;29;20397;-85
2022/05/23 14:30:24;;;;;;;3.20;1.80;;;19.10;96.00;;;;;;4953594;28;20912;-85
2022/05/23 14:33:01;;;;;;;3.50;2.00;;;18.90;97.10;;;;;;4956130;28;20493;-85
2022/05/23 14:35:54;;;;;;;7.03;2.15;;;19.00;97.60;;;;;;4937689;29;20418;-85
2022/05/23 14:38:56;;;;;;;3.95;1.90;;;19.00;97.30;;;;;;4941108;28;20585;-84
2022/05/23 14:41:28;;;;;;;4.05;1.90;;;18.70;98.20;;;;;;4941136;28;20462;-86
2022/05/23 14:44:23;;;;;;;3.60;1.90;;;18.50;99.20;;;;;;4936628;29;20410;-85
2022/05/23 14:47:13;;;;;;;4.55;1.80;;;18.10;97.40;;;;;;4941914;29;20404;-85
2022/05/23 14:50:02;;;;;;;3.97;2.00;;;18.30;97.00;;;;;;4920846;29;20418;-85